Time;durP1;ratioP1;P1;durP2;ratioP2;P2;SDS_P1;SDS_P2;PMS_P1;PMS_P2;Temp;Humidity;BMP_temperature;BMP_pressure;BME280_temperature;BME280_humidity;BME280_pressure;Samples;Min_cycle;Max_cycle;Signal;HPM_P1;HPM_P2
2022/07/02 00:02:23;;;;;;;7.65;5.38;;;;;;;21.59;67.03;94760.31;5091945;28;20746;-80
2022/07/02 00:04:57;;;;;;;6.55;4.50;;;;;;;21.65;67.23;94753.19;5091240;28;20289;-81
2022/07/02 00:07:26;;;;;;;7.63;4.35;;;;;;;21.65;67.94;94753.19;5092271;28;20278;-81
2022/07/02 00:09:55;;;;;;;7.60;6.95;;;;;;;21.53;68.41;94759.91;5091577;28;20567;-82
2022/07/02 00:12:23;;;;;;;5.38;3.85;;;;;;;21.32;69.90;94765.41;5091694;28;20309;-79
2022/07/02 00:14:53;;;;;;;5.95;3.95;;;;;;;21.20;70.06;94758.31;5091319;28;20275;-80
2022/07/02 00:17:20;;;;;;;10.35;5.05;;;;;;;21.18;69.95;94752.38;5091843;28;20315;-79
2022/07/02 00:19:47;;;;;;;7.82;4.15;;;;;;;21.23;69.76;94763.03;5092030;28;20202;-81
2022/07/02 00:22:15;;;;;;;8.10;4.78;;;;;;;21.23;69.39;94759.50;5091680;28;20223;-80
2022/07/02 00:24:42;;;;;;;5.70;4.00;;;;;;;21.23;69.37;94759.50;5090971;28;20401;-79
2022/07/02 00:27:12;;;;;;;8.23;4.93;;;;;;;21.19;68.90;94759.47;5070419;28;20733;-80
2022/07/02 00:29:47;;;;;;;8.35;3.97;;;;;;;21.26;68.57;94753.22;5084899;28;20325;-80
2022/07/02 00:32:14;;;;;;;8.40;7.53;;;;;;;21.31;69.07;94747.31;5091477;28;20555;-80
2022/07/02 00:34:45;;;;;;;9.20;8.27;;;;;;;21.31;68.94;94744.56;5090672;28;20198;-80
2022/07/02 00:37:13;;;;;;;10.70;4.47;;;;;;;21.33;69.33;94752.41;5091083;28;20214;-80
2022/07/02 00:39:41;;;;;;;6.55;4.60;;;;;;;21.27;69.64;94744.56;5090706;28;20744;-80
2022/07/02 00:42:10;;;;;;;5.93;4.30;;;;;;;21.31;69.31;94749.28;5090822;28;20268;-79
2022/07/02 00:44:38;;;;;;;7.13;3.90;;;;;;;21.33;69.74;94752.41;5091084;28;20313;-80
2022/07/02 00:47:07;;;;;;;6.30;3.75;;;;;;;21.28;70.09;94750.84;5091205;28;20305;-80
2022/07/02 00:49:36;;;;;;;6.05;3.75;;;;;;;21.10;69.09;94753.53;5091373;28;20218;-80
2022/07/02 00:52:03;;;;;;;7.90;7.07;;;;;;;21.06;69.72;94761.00;5091235;28;20758;-80
2022/07/02 00:54:31;;;;;;;6.00;3.75;;;;;;;20.86;71.28;94760.59;5091134;28;20222;-80
2022/07/02 00:56:58;;;;;;;5.10;3.47;;;;;;;20.70;72.05;94764.88;5091348;28;20242;-80
2022/07/02 00:59:26;;;;;;;6.57;4.43;;;;;;;20.71;71.98;94760.94;5090965;28;20657;-81
2022/07/02 01:01:53;;;;;;;8.35;4.25;;;;;;;20.67;72.11;94768.41;5091254;28;20263;-80
2022/07/02 01:04:20;;;;;;;4.55;3.65;;;;;;;20.70;72.06;94770.38;5091100;28;20212;-80
2022/07/02 01:06:50;;;;;;;8.00;4.28;;;;;;;20.78;72.16;94764.50;5090834;28;20251;-80
2022/07/02 01:12:04;;;;;;;6.30;4.95;;;;;;;20.82;71.66;94767.25;5090954;28;20205;-80
2022/07/02 01:14:34;;;;;;;6.90;4.40;;;;;;;20.75;72.14;94761.75;5090744;28;20715;-79
2022/07/02 01:17:00;;;;;;;6.20;4.10;;;;;;;20.74;71.91;94754.66;5090669;28;20650;-80
2022/07/02 01:19:27;;;;;;;4.78;3.67;;;;;;;20.71;72.17;94750.72;5090718;28;20221;-80
2022/07/02 01:22:22;;;;;;;5.90;4.25;;;;;;;20.73;71.69;94750.34;5091052;28;20225;-80
2022/07/02 01:24:51;;;;;;;6.80;4.10;;;;;;;20.69;71.62;94747.56;5054568;28;20259;-80
2022/07/02 01:27:19;;;;;;;5.95;3.90;;;;;;;20.62;71.27;94746.75;5090581;28;20585;-80
2022/07/02 01:29:46;;;;;;;8.93;4.78;;;;;;;20.62;71.38;94741.25;5090965;28;20210;-80
2022/07/02 01:32:14;;;;;;;4.72;4.07;;;;;;;20.55;71.07;94742.00;5094247;28;20633;-80
2022/07/02 01:34:43;;;;;;;8.45;4.50;;;;;;;20.55;70.78;94731.78;5094947;28;20255;-80
2022/07/02 01:37:12;;;;;;;9.35;4.88;;;;;;;20.52;70.84;94738.06;5094021;28;20225;-80
2022/07/02 01:39:41;;;;;;;7.03;4.20;;;;;;;20.55;70.99;94737.28;5094300;28;20252;-80
2022/07/02 01:42:09;;;;;;;6.68;3.97;;;;;;;20.39;70.88;94734.09;5094524;28;20226;-80
2022/07/02 01:44:37;;;;;;;6.03;4.15;;;;;;;20.46;70.48;94741.59;5094446;28;20247;-80
2022/07/02 01:47:06;;;;;;;7.18;4.90;;;;;;;20.52;70.29;94738.06;5094835;28;20634;-80
2022/07/02 01:49:33;;;;;;;5.55;3.92;;;;;;;20.51;70.30;94747.50;5094681;28;20219;-80
2022/07/02 01:52:00;;;;;;;7.45;4.75;;;;;;;20.54;70.61;94734.94;5094883;28;20279;-80
2022/07/02 01:54:27;;;;;;;7.55;3.97;;;;;;;20.55;70.76;94737.28;5094525;28;20218;-80
2022/07/02 01:56:56;;;;;;;5.75;4.20;;;;;;;20.53;70.63;94738.84;5094502;28;20253;-80
2022/07/02 01:59:23;;;;;;;7.60;4.18;;;;;;;20.50;70.81;94745.91;5094164;28;20618;-80
2022/07/02 02:01:50;;;;;;;7.80;4.63;;;;;;;20.51;71.64;94743.94;5094450;28;20206;-80
2022/07/02 02:04:16;;;;;;;6.30;3.80;;;;;;;20.56;71.24;94738.09;5094513;28;20626;-80
2022/07/02 02:06:44;;;;;;;5.38;3.85;;;;;;;20.56;71.32;94749.09;5093676;28;20206;-80
2022/07/02 02:09:11;;;;;;;8.45;4.25;;;;;;;20.48;71.64;94742.78;5094174;28;20222;-80
2022/07/02 02:11:38;;;;;;;5.22;3.75;;;;;;;20.56;71.13;94746.34;5093937;28;20733;-80
2022/07/02 02:14:06;;;;;;;7.65;4.00;;;;;;;20.44;71.33;94747.47;5094164;28;20276;-80
2022/07/02 02:16:33;;;;;;;7.55;3.88;;;;;;;20.44;71.89;94741.97;5093671;28;20271;-80
2022/07/02 02:19:01;;;;;;;6.38;4.18;;;;;;;20.38;72.21;94748.22;5094027;28;20230;-80
2022/07/02 02:21:29;;;;;;;7.68;6.88;;;;;;;20.36;72.57;94745.88;5093910;28;20229;-80
2022/07/02 02:23:57;;;;;;;6.78;4.38;;;;;;;20.24;72.88;94748.94;5073717;28;20276;-80
2022/07/02 02:26:24;;;;;;;6.00;3.80;;;;;;;20.09;73.57;94752.81;5086630;28;20230;-80
2022/07/02 02:28:51;;;;;;;5.80;4.18;;;;;;;20.02;73.28;94753.53;5093525;28;20202;-79
2022/07/02 02:31:20;;;;;;;5.03;3.75;;;;;;;19.96;73.49;94759.78;5093686;28;20251;-80
2022/07/02 02:33:46;;;;;;;5.95;4.55;;;;;;;19.96;73.84;94762.53;5093697;28;20212;-79
2022/07/02 02:36:13;;;;;;;4.65;3.75;;;;;;;19.99;73.53;94764.50;5093190;28;20762;-79
2022/07/02 02:38:40;;;;;;;8.60;4.68;;;;;;;20.12;72.94;94757.50;5092953;28;20226;-80
2022/07/02 02:41:09;;;;;;;6.68;3.92;;;;;;;20.13;72.89;94764.59;5092933;28;20268;-80
2022/07/02 02:43:37;;;;;;;8.00;4.68;;;;;;;20.23;73.03;94769.34;5091625;28;20583;-79
2022/07/02 02:46:06;;;;;;;7.47;4.85;;;;;;;20.27;73.25;94775.69;5093360;28;20218;-79
2022/07/02 02:48:34;;;;;;;9.77;4.65;;;;;;;20.30;72.93;94780.41;5093732;28;20329;-79
2022/07/02 02:51:01;;;;;;;6.55;4.35;;;;;;;20.24;73.28;94781.94;5093532;28;20218;-79
2022/07/02 02:53:28;;;;;;;7.10;4.57;;;;;;;20.24;73.02;94792.94;5093593;28;20222;-79
2022/07/02 02:55:55;;;;;;;5.13;3.55;;;;;;;20.33;72.60;94787.91;5093475;28;20202;-80
2022/07/02 02:58:22;;;;;;;8.57;5.00;;;;;;;20.40;72.53;94782.44;5093066;28;20272;-79
2022/07/02 03:00:48;;;;;;;6.00;4.45;;;;;;;20.44;72.38;94797.03;5093470;28;20232;-81
2022/07/02 03:03:15;;;;;;;7.03;4.80;;;;;;;20.45;72.47;94782.09;5093342;28;20202;-79
2022/07/02 03:05:43;;;;;;;5.88;4.43;;;;;;;20.50;72.56;94789.94;5093173;28;20218;-79
2022/07/02 03:08:10;;;;;;;5.25;4.00;;;;;;;20.61;71.74;94795.53;5093329;28;20210;-79
2022/07/02 03:10:37;;;;;;;4.60;3.85;;;;;;;20.73;71.43;94791.63;5092934;28;20222;-79
2022/07/02 03:13:04;;;;;;;7.07;4.10;;;;;;;20.91;70.97;94797.97;5092799;28;20275;-79
2022/07/02 03:15:30;;;;;;;5.95;3.80;;;;;;;21.11;70.38;94795.66;5092645;28;20263;-80
2022/07/02 03:17:57;;;;;;;7.00;4.95;;;;;;;21.35;69.62;94800.44;5092834;28;20271;-78
2022/07/02 03:20:24;;;;;;;8.35;7.18;;;;;;;21.55;68.57;94800.88;5093150;28;20203;-80
2022/07/02 03:22:52;;;;;;;8.57;7.78;;;;;;;22.25;66.63;94785.47;5093134;28;20580;-81
2022/07/02 03:25:19;;;;;;;8.38;7.45;;;;;;;22.88;64.86;94789.19;5092645;28;20291;-80
2022/07/02 03:27:46;;;;;;;10.25;8.07;;;;;;;23.44;62.68;94792.78;5093009;28;20283;-81
2022/07/02 03:30:13;;;;;;;9.45;7.68;;;;;;;24.03;60.94;94793.53;5092570;28;20615;-79
2022/07/02 03:32:40;;;;;;;7.68;6.88;;;;;;;24.58;59.59;94793.38;5093116;28;20206;-80
2022/07/02 03:35:07;;;;;;;8.27;7.43;;;;;;;24.92;58.00;94789.78;5092699;28;20202;-80
2022/07/02 03:37:34;;;;;;;8.82;8.02;;;;;;;25.21;57.15;94798.53;5092614;28;20643;-80
2022/07/02 03:40:02;;;;;;;8.52;7.72;;;;;;;25.45;56.42;94795.41;5092070;28;20226;-80
2022/07/02 03:42:29;;;;;;;6.15;4.65;;;;;;;25.73;55.93;94810.06;5091898;28;20226;-79
2022/07/02 03:44:56;;;;;;;5.97;4.63;;;;;;;26.33;54.78;94797.97;5091673;28;20720;-79
2022/07/02 03:47:22;;;;;;;9.43;8.48;;;;;;;26.97;53.07;94796.75;5092387;28;20267;-79
2022/07/02 03:49:49;;;;;;;8.88;8.07;;;;;;;27.24;51.80;94793.78;5093814;28;20226;-80
2022/07/02 03:52:16;;;;;;;10.15;8.60;;;;;;;27.34;52.28;94791.97;5092305;28;20218;-80
2022/07/02 03:54:43;;;;;;;8.95;7.95;;;;;;;27.43;51.39;94792.97;5091797;28;20206;-80
2022/07/02 03:57:11;;;;;;;9.73;7.82;;;;;;;27.23;51.52;94792.22;5091809;28;20234;-80
2022/07/02 03:59:38;;;;;;;8.63;7.82;;;;;;;27.54;50.97;94806.63;5092104;28;20705;-81
2022/07/02 04:02:05;;;;;;;9.95;9.07;;;;;;;28.24;48.57;94803.41;5092119;28;20674;-80
2022/07/02 04:04:32;;;;;;;10.30;9.27;;;;;;;29.03;46.72;94807.66;5091845;28;20321;-80
2022/07/02 04:06:59;;;;;;;9.60;8.70;;;;;;;29.77;45.26;94804.66;5092190;28;20248;-81
2022/07/02 04:09:26;;;;;;;9.77;8.77;;;;;;;30.15;44.16;94791.44;5091910;28;20226;-81
2022/07/02 04:11:52;;;;;;;9.27;8.48;;;;;;;30.74;43.54;94793.41;5091657;28;20226;-81
2022/07/02 04:14:21;;;;;;;10.38;9.45;;;;;;;30.96;43.28;94782.22;5091330;28;20218;-83
2022/07/02 04:16:48;;;;;;;10.55;9.55;;;;;;;30.94;42.90;94798.69;5090959;28;20226;-82
2022/07/02 04:19:14;;;;;;;10.30;9.35;;;;;;;31.44;41.77;94789.19;5091424;28;20251;-82
2022/07/02 04:21:41;;;;;;;10.18;9.27;;;;;;;31.62;41.39;94794.13;5091965;28;20295;-82
2022/07/02 04:24:08;;;;;;;10.20;9.13;;;;;;;32.00;40.14;94793.81;5091376;28;20646;-81
2022/07/02 04:26:35;;;;;;;9.98;9.07;;;;;;;32.30;39.77;94809.03;5091596;28;20230;-81
2022/07/02 04:29:02;;;;;;;12.10;9.68;;;;;;;31.99;39.62;94805.50;5090892;28;20684;-82
2022/07/02 04:31:31;;;;;;;10.00;9.02;;;;;;;31.52;40.45;94805.75;5090986;28;20256;-82
2022/07/02 04:33:58;;;;;;;9.73;8.73;;;;;;;31.91;39.65;94807.03;5091645;28;20206;-82
2022/07/02 04:36:24;;;;;;;10.13;9.15;;;;;;;31.70;39.95;94803.84;5091439;28;20190;-81
2022/07/02 04:38:51;;;;;;;10.98;9.98;;;;;;;31.52;40.46;94812.13;5091436;28;20267;-82
2022/07/02 04:41:18;;;;;;;11.02;9.93;;;;;;;31.55;41.67;94816.81;5091177;28;20620;-81
2022/07/02 04:43:45;;;;;;;10.98;9.98;;;;;;;31.64;41.30;94808.47;5090700;28;20218;-82
2022/07/02 04:46:12;;;;;;;11.05;10.05;;;;;;;31.78;40.46;94813.53;5091257;28;20208;-83
2022/07/02 04:48:40;;;;;;;10.90;9.98;;;;;;;32.17;39.72;94816.78;5091233;28;20632;-83
2022/07/02 04:51:07;;;;;;;11.10;9.95;;;;;;;32.61;38.86;94805.34;5091326;28;20218;-82
2022/07/02 04:53:33;;;;;;;11.50;10.30;;;;;;;32.73;38.43;94810.84;5091527;28;20225;-82
2022/07/02 04:56:00;;;;;;;11.10;10.05;;;;;;;33.21;38.37;94818.78;5091538;28;20210;-82
2022/07/02 04:58:27;;;;;;;11.23;10.20;;;;;;;33.98;36.80;94807.97;5091379;28;20229;-83
2022/07/02 05:00:54;;;;;;;11.15;10.05;;;;;;;33.91;36.58;94811.13;5091537;28;20248;-82
2022/07/02 05:03:20;;;;;;;12.32;10.55;;;;;;;34.09;35.94;94811.03;5090813;28;20704;-79
2022/07/02 05:05:49;;;;;;;11.27;10.27;;;;;;;33.63;36.89;94816.81;5090303;28;20665;-82
2022/07/02 05:08:16;;;;;;;11.60;9.63;;;;;;;32.92;37.97;94817.25;5091214;28;20214;-82
2022/07/02 05:10:43;;;;;;;12.23;11.00;;;;;;;33.58;36.53;94819.50;5091483;28;20281;-81
2022/07/02 05:13:09;;;;;;;11.35;10.13;;;;;;;34.14;36.03;94811.19;5090913;28;20294;-82
2022/07/02 05:15:37;;;;;;;11.57;10.48;;;;;;;35.17;34.75;94805.94;5089071;28;20230;-83
2022/07/02 05:18:04;;;;;;;11.00;9.82;;;;;;;35.31;34.11;94812.09;5089491;28;20253;-83
2022/07/02 05:20:31;;;;;;;10.80;9.75;;;;;;;35.13;34.00;94810.97;5090618;28;20230;-79
2022/07/02 05:22:59;;;;;;;11.38;10.18;;;;;;;35.26;34.52;94808.69;5086369;28;20198;-79
2022/07/02 05:25:26;;;;;;;10.27;9.25;;;;;;;34.99;34.73;94811.72;5090157;28;20240;-81
2022/07/02 05:27:53;;;;;;;9.75;8.82;;;;;;;34.43;34.34;94821.84;5091020;28;20206;-79
2022/07/02 05:30:19;;;;;;;9.43;8.40;;;;;;;35.47;33.21;94823.69;5090763;28;20198;-79
2022/07/02 05:32:46;;;;;;;9.30;8.50;;;;;;;35.25;33.14;94824.03;5090926;28;20234;-81
2022/07/02 05:35:13;;;;;;;9.60;8.75;;;;;;;34.23;34.85;94835.66;5090988;28;20225;-84
2022/07/02 05:37:40;;;;;;;8.85;7.95;;;;;;;33.54;36.94;94836.50;5091040;28;20296;-81
2022/07/02 05:40:10;;;;;;;9.15;8.45;;;;;;;34.24;36.00;94831.59;5091559;28;20222;-84
2022/07/02 05:42:37;;;;;;;9.02;8.25;;;;;;;34.66;34.71;94831.53;5090557;28;20532;-79
2022/07/02 05:45:04;;;;;;;8.80;8.00;;;;;;;33.54;36.34;94842.13;5090244;28;20541;-83
2022/07/02 05:47:31;;;;;;;8.35;7.65;;;;;;;33.80;36.15;94843.34;5090425;28;20549;-81
2022/07/02 05:49:57;;;;;;;9.23;8.45;;;;;;;34.84;34.72;94839.09;5089978;28;20766;-80
2022/07/02 05:52:24;;;;;;;8.82;8.02;;;;;;;33.84;35.35;94846.78;5089105;28;20218;-82
2022/07/02 05:54:51;;;;;;;9.25;8.43;;;;;;;34.04;35.39;94845.44;5090118;28;20732;-81
2022/07/02 05:57:19;;;;;;;9.73;8.90;;;;;;;34.92;33.95;94829.78;5090496;28;20225;-83
2022/07/02 05:59:46;;;;;;;9.80;8.90;;;;;;;36.01;32.08;94837.66;5090768;28;20219;-83
2022/07/02 06:02:13;;;;;;;9.15;8.38;;;;;;;35.97;32.86;94838.66;5090803;28;20279;-80
2022/07/02 06:04:40;;;;;;;9.48;8.68;;;;;;;35.67;31.73;94834.28;5090143;28;20218;-82
2022/07/02 06:09:50;;;;;;;9.48;8.50;;;;;;;36.89;32.60;94837.44;5090829;28;20194;-82
2022/07/02 06:12:19;;;;;;;9.82;8.93;;;;;;;37.68;30.11;94834.25;5090630;28;20287;-83
2022/07/02 06:14:45;;;;;;;10.35;8.82;;;;;;;37.99;30.19;94834.25;5089656;28;20275;-82
2022/07/02 06:17:12;;;;;;;10.27;9.27;;;;;;;37.33;30.07;94832.31;5090646;28;20696;-80
2022/07/02 06:19:39;;;;;;;9.45;8.68;;;;;;;38.21;29.62;94835.72;5093579;28;20226;-80
2022/07/02 06:22:06;;;;;;;10.10;9.30;;;;;;;38.39;28.68;94829.69;5094103;28;20202;-79
2022/07/02 06:24:33;;;;;;;10.05;9.25;;;;;;;37.26;30.09;94841.25;5093768;28;20209;-81
2022/07/02 06:27:00;;;;;;;10.45;9.45;;;;;;;37.08;30.36;94833.03;5093523;28;20234;-81
2022/07/02 06:29:28;;;;;;;9.77;8.98;;;;;;;38.29;28.54;94842.47;5093463;28;20683;-79
2022/07/02 06:31:55;;;;;;;9.25;8.45;;;;;;;39.05;27.94;94834.19;5093321;28;20264;-80
2022/07/02 06:34:22;;;;;;;9.40;8.70;;;;;;;37.44;29.69;94839.38;5093466;28;20287;-81
2022/07/02 06:36:49;;;;;;;9.88;9.05;;;;;;;37.08;30.15;94841.50;5093674;28;20198;-79
2022/07/02 06:39:16;;;;;;;9.73;8.98;;;;;;;37.89;29.11;94835.69;5093302;28;20230;-81
2022/07/02 06:44:28;;;;;;;10.20;9.30;;;;;;;38.28;29.21;94840.91;5088940;28;20640;-81
2022/07/02 06:46:55;;;;;;;10.60;9.50;;;;;;;37.40;30.79;94836.00;5093609;28;20218;-80
2022/07/02 06:49:22;;;;;;;10.93;10.07;;;;;;;36.69;32.39;94841.00;5092782;28;20202;-78
2022/07/02 06:51:48;;;;;;;9.95;9.10;;;;;;;35.00;34.02;94844.25;5093410;28;20217;-77
2022/07/02 06:54:16;;;;;;;10.10;9.07;;;;;;;35.18;34.03;94846.94;5093554;28;20198;-78
2022/07/02 06:56:43;;;;;;;11.20;10.30;;;;;;;36.53;32.45;94838.72;5092528;28;20437;-85
2022/07/02 06:59:10;;;;;;;9.88;8.98;;;;;;;37.73;31.18;94842.00;5093429;28;20321;-81
2022/07/02 07:01:38;;;;;;;10.27;9.27;;;;;;;37.90;30.12;94839.31;5093341;28;20222;-86
2022/07/02 07:04:05;;;;;;;10.18;8.98;;;;;;;37.18;31.43;94848.59;5095117;28;20227;-81
2022/07/02 07:06:32;;;;;;;11.65;10.75;;;;;;;36.82;32.39;94849.16;5094270;28;20429;-86
2022/07/02 07:08:59;;;;;;;10.50;9.60;;;;;;;36.75;32.37;94849.59;5094508;28;20226;-84
2022/07/02 07:11:26;;;;;;;10.55;9.55;;;;;;;34.46;35.94;94860.25;5093861;28;20199;-82
2022/07/02 07:13:52;;;;;;;10.70;9.80;;;;;;;35.21;34.24;94856.47;5093550;28;20225;-90
2022/07/02 07:16:19;;;;;;;10.50;9.60;;;;;;;35.28;35.67;94861.75;5094801;28;20611;-85
2022/07/02 07:18:48;;;;;;;9.68;8.77;;;;;;;35.02;34.91;94861.47;5094161;28;20237;-87
2022/07/02 07:21:15;;;;;;;10.23;9.25;;;;;;;36.07;34.27;94852.66;5095873;28;20234;-90
2022/07/02 07:23:42;;;;;;;9.90;8.68;;;;;;;35.91;33.93;94857.53;5097032;28;20198;-89
2022/07/02 07:26:09;;;;;;;9.93;9.02;;;;;;;34.64;35.44;94858.59;5094490;28;20586;-86
2022/07/02 07:28:36;;;;;;;10.07;9.13;;;;;;;34.90;34.90;94865.31;5092581;28;20194;-85
2022/07/02 07:31:03;;;;;;;9.90;9.07;;;;;;;35.38;34.53;94860.41;5093198;28;20214;-82
2022/07/02 07:33:29;;;;;;;9.32;8.63;;;;;;;35.54;34.89;94861.97;5092643;28;20766;-89
2022/07/02 07:35:58;;;;;;;10.30;9.40;;;;;;;35.43;36.16;94868.19;5092828;28;20248;-84
2022/07/02 07:38:25;;;;;;;10.48;9.48;;;;;;;35.36;34.88;94868.56;5079687;28;20701;-87
2022/07/02 07:40:52;;;;;;;11.32;9.75;;;;;;;35.13;34.76;94861.69;5092038;28;20717;-84
2022/07/02 07:43:18;;;;;;;10.18;9.27;;;;;;;35.67;33.88;94856.84;5092401;28;20218;-84
2022/07/02 07:45:46;;;;;;;9.13;8.32;;;;;;;36.93;33.15;94855.72;5091479;28;20226;-85
2022/07/02 07:48:13;;;;;;;9.50;8.60;;;;;;;35.19;34.58;94859.75;5078548;28;20198;-82
2022/07/02 07:50:40;;;;;;;10.38;9.48;;;;;;;34.09;36.63;94859.63;5091435;28;20269;-84
2022/07/02 07:53:09;;;;;;;9.75;8.85;;;;;;;34.67;35.53;94866.06;5091749;28;20202;-85
2022/07/02 07:55:35;;;;;;;9.50;8.52;;;;;;;35.05;34.86;94866.13;5092365;28;20247;-83
2022/07/02 07:58:02;;;;;;;9.98;9.07;;;;;;;34.65;36.59;94862.97;5092146;28;20280;-82
2022/07/02 08:00:29;;;;;;;9.48;8.57;;;;;;;35.59;34.36;94858.47;5091981;28;20230;-85
2022/07/02 08:02:56;;;;;;;9.52;8.73;;;;;;;35.50;35.68;94867.03;5092648;28;20226;-85
2022/07/02 08:05:23;;;;;;;9.98;9.07;;;;;;;36.44;34.04;94859.41;5092224;28;20237;-84
2022/07/02 08:07:50;;;;;;;9.70;8.70;;;;;;;36.95;33.00;94858.84;5097971;28;20264;-83
2022/07/02 08:10:18;;;;;;;10.50;9.43;;;;;;;37.67;31.54;94858.16;5099393;28;20693;-83
2022/07/02 08:12:45;;;;;;;12.85;11.68;;;;;;;37.29;32.94;94854.41;5092975;28;20198;-84
2022/07/02 08:15:12;;;;;;;11.15;10.05;;;;;;;37.21;31.96;94870.22;5091695;28;20218;-84
2022/07/02 08:17:39;;;;;;;10.13;9.13;;;;;;;36.82;33.25;94866.09;5091725;28;20218;-85
2022/07/02 08:20:07;;;;;;;11.68;9.35;;;;;;;36.20;33.90;94867.22;5091823;28;20198;-85
2022/07/02 08:22:34;;;;;;;10.95;10.02;;;;;;;36.28;34.04;94854.28;5091397;28;20221;-84
2022/07/02 08:25:02;;;;;;;10.45;9.45;;;;;;;36.20;33.38;94862.38;5092027;28;20203;-83
2022/07/02 08:27:30;;;;;;;9.95;9.00;;;;;;;36.48;33.10;94859.22;5092124;28;20255;-84
2022/07/02 08:29:58;;;;;;;11.38;10.30;;;;;;;35.90;35.28;94864.44;5091599;28;20256;-85
2022/07/02 08:32:25;;;;;;;10.80;9.80;;;;;;;35.24;35.40;94859.09;5091282;28;20202;-85
2022/07/02 08:34:53;;;;;;;11.10;10.00;;;;;;;34.68;35.83;94862.00;5091526;28;20222;-84
2022/07/02 08:37:22;;;;;;;10.20;9.30;;;;;;;35.10;35.55;94861.88;5091213;28;20228;-80
2022/07/02 08:39:48;;;;;;;9.65;8.65;;;;;;;35.43;34.38;94867.41;5091150;28;20229;-82
2022/07/02 08:42:24;;;;;;;10.52;9.25;;;;;;;35.53;33.61;94871.72;5091183;28;20275;-84
2022/07/02 08:44:53;;;;;;;10.10;8.52;;;;;;;35.38;33.98;94868.09;5091306;28;20283;-84
2022/07/02 08:47:22;;;;;;;9.48;8.57;;;;;;;35.22;34.31;94875.72;5090942;28;20222;-83
2022/07/02 08:49:49;;;;;;;10.25;9.25;;;;;;;35.39;34.02;94866.84;5078258;28;20210;-84
2022/07/02 08:52:18;;;;;;;9.93;9.05;;;;;;;35.55;34.76;94869.16;5090838;28;20222;-84
2022/07/02 08:54:45;;;;;;;9.90;8.90;;;;;;;35.92;34.79;94870.38;5077877;28;20327;-85
2022/07/02 08:57:14;;;;;;;9.82;8.82;;;;;;;35.70;34.87;94875.59;5091285;28;20249;-85
2022/07/02 08:59:41;;;;;;;9.55;8.75;;;;;;;35.87;35.52;94873.88;5090986;28;20280;-82
2022/07/02 09:02:13;;;;;;;9.30;8.40;;;;;;;35.28;35.52;94879.44;5090768;28;20646;-84
2022/07/02 09:04:42;;;;;;;9.48;8.57;;;;;;;35.77;34.60;94874.47;5091081;28;20194;-83
2022/07/02 09:07:12;;;;;;;9.32;8.52;;;;;;;35.61;34.04;94872.88;5091039;28;20225;-82
2022/07/02 09:09:41;;;;;;;9.73;8.88;;;;;;;35.83;33.71;94870.47;5090557;28;20229;-84
2022/07/02 09:12:10;;;;;;;10.40;8.85;;;;;;;35.83;35.44;94873.28;5091085;28;20289;-84
2022/07/02 09:14:36;;;;;;;10.90;9.82;;;;;;;36.25;34.67;94880.66;5090721;28;20262;-85
2022/07/02 09:17:06;;;;;;;9.75;8.90;;;;;;;35.40;34.13;94862.75;5090866;28;20198;-85
2022/07/02 09:19:35;;;;;;;9.35;8.45;;;;;;;35.71;33.72;94853.81;5090817;28;20222;-85
2022/07/02 09:22:02;;;;;;;8.57;7.78;;;;;;;35.06;34.12;94869.72;5091103;28;20198;-82
2022/07/02 09:24:31;;;;;;;9.10;8.10;;;;;;;34.49;35.41;94864.94;5090696;28;20206;-84
2022/07/02 09:27:02;;;;;;;9.75;8.30;;;;;;;34.46;35.35;94868.69;5090285;28;20238;-82
2022/07/02 09:29:29;;;;;;;8.95;8.18;;;;;;;34.66;35.13;94872.97;5090721;28;20218;-85
2022/07/02 09:31:56;;;;;;;9.20;8.40;;;;;;;34.66;35.75;94864.53;5090721;28;20209;-84
2022/07/02 09:34:27;;;;;;;9.80;8.82;;;;;;;34.68;33.51;94862.00;5090939;28;20226;-84
2022/07/02 09:36:55;;;;;;;8.80;7.95;;;;;;;34.62;34.98;94867.50;5090256;28;20271;-84
2022/07/02 09:39:30;;;;;;;7.55;6.95;;;;;;;34.77;33.73;94867.59;5090918;28;20221;-81
2022/07/02 09:41:57;;;;;;;8.23;7.53;;;;;;;34.97;33.69;94859.34;5090506;28;20253;-85
2022/07/02 09:44:25;;;;;;;7.78;7.10;;;;;;;35.17;33.06;94853.81;5090666;28;20708;-84
2022/07/02 09:46:52;;;;;;;7.97;7.20;;;;;;;35.61;32.53;94855.94;5090677;28;20226;-83
2022/07/02 09:49:19;;;;;;;7.70;7.00;;;;;;;35.81;32.09;94855.31;5090745;28;21440;-80
2022/07/02 09:51:50;;;;;;;8.23;7.53;;;;;;;36.18;32.58;94847.19;5090862;28;20626;-83
2022/07/02 09:54:23;;;;;;;8.23;7.47;;;;;;;35.85;32.39;94858.69;5094211;28;20198;-81
2022/07/02 09:56:54;;;;;;;8.30;7.60;;;;;;;35.43;32.66;94861.75;5094265;28;20247;-85
2022/07/02 09:59:21;;;;;;;8.90;8.10;;;;;;;33.97;34.36;94863.44;5096717;28;20237;-82
2022/07/02 10:01:48;;;;;;;8.57;7.78;;;;;;;33.04;35.58;94861.22;5094278;28;20222;-78
2022/07/02 10:04:15;;;;;;;8.25;7.55;;;;;;;33.31;36.12;94852.03;5094248;28;20255;-78
2022/07/02 10:06:43;;;;;;;8.82;8.02;;;;;;;34.04;34.15;94839.81;5093897;28;20251;-87
2022/07/02 10:09:11;;;;;;;9.80;7.95;;;;;;;33.45;35.65;94839.34;5094391;28;20218;-81
2022/07/02 10:11:40;;;;;;;8.15;7.35;;;;;;;34.10;35.32;94837.91;5094140;28;20285;-83
2022/07/02 10:14:10;;;;;;;7.47;6.88;;;;;;;34.67;34.22;94829.50;5094146;28;20291;-82
2022/07/02 10:16:39;;;;;;;8.98;8.10;;;;;;;34.89;33.66;94824.34;5093861;28;20195;-83
2022/07/02 10:19:07;;;;;;;8.15;7.45;;;;;;;34.71;33.36;94827.28;5080513;28;20251;-84
2022/07/02 10:21:34;;;;;;;8.77;7.88;;;;;;;34.77;33.47;94828.97;5094049;28;20198;-85
2022/07/02 10:24:02;;;;;;;8.60;7.80;;;;;;;34.50;33.63;94826.31;5094139;28;20198;-87
2022/07/02 10:26:31;;;;;;;8.15;7.40;;;;;;;35.06;34.54;94816.22;5093322;28;20238;-87
2022/07/02 10:29:02;;;;;;;8.25;7.45;;;;;;;35.38;34.63;94806.88;5093832;28;20222;-83
2022/07/02 10:31:35;;;;;;;8.00;7.18;;;;;;;35.44;31.64;94812.59;5093754;28;20305;-82
2022/07/02 10:34:20;;;;;;;8.43;7.63;;;;;;;36.17;30.74;94806.13;5093738;28;20222;-83
2022/07/02 10:36:47;;;;;;;8.25;7.28;;;;;;;35.12;32.01;94817.91;5094052;28;20206;-82
2022/07/02 10:39:16;;;;;;;10.27;7.75;;;;;;;34.49;33.65;94814.28;5091645;28;20229;-83
2022/07/02 10:41:43;;;;;;;7.47;6.85;;;;;;;34.49;34.20;94808.66;5080376;28;20765;-80
2022/07/02 10:44:12;;;;;;;8.23;7.45;;;;;;;33.98;35.61;94807.97;5087665;28;20218;-80
2022/07/02 10:46:39;;;;;;;8.77;7.63;;;;;;;33.50;35.82;94816.22;5093689;28;20199;-77
2022/07/02 10:49:06;;;;;;;8.52;7.45;;;;;;;33.63;34.69;94805.56;5093236;28;20230;-81
2022/07/02 10:51:34;;;;;;;8.07;7.38;;;;;;;33.70;34.99;94805.25;5093136;28;20293;-78
2022/07/02 10:54:02;;;;;;;23.45;7.53;;;;;;;34.15;35.24;94806.34;5092725;28;20222;-78
2022/07/02 10:56:30;;;;;;;8.00;7.30;;;;;;;34.17;34.86;94806.63;5092924;28;20197;-83
2022/07/02 10:58:57;;;;;;;8.00;7.30;;;;;;;33.90;36.09;94813.16;5093178;28;20255;-85
2022/07/02 11:01:26;;;;;;;7.80;7.10;;;;;;;33.61;35.14;94813.72;5093423;28;20203;-85
2022/07/02 11:03:55;;;;;;;7.00;6.40;;;;;;;32.91;35.84;94824.09;5091835;28;20225;-79
2022/07/02 11:06:23;;;;;;;7.18;6.57;;;;;;;32.28;35.85;94817.13;5092897;28;20761;-85
2022/07/02 11:08:53;;;;;;;7.72;6.90;;;;;;;32.99;37.18;94814.09;5093061;28;20268;-81
2022/07/02 11:11:22;;;;;;;8.40;7.60;;;;;;;33.04;36.05;94810.69;5092996;28;20230;-85
2022/07/02 11:13:51;;;;;;;8.05;7.30;;;;;;;33.80;36.33;94809.59;5092497;28;20202;-85
2022/07/02 11:16:24;;;;;;;8.25;7.30;;;;;;;33.44;35.12;94799.25;5092983;28;20202;-80
2022/07/02 11:18:54;;;;;;;7.97;7.28;;;;;;;33.39;35.71;94808.28;5092956;28;20676;-85
2022/07/02 11:21:22;;;;;;;7.60;7.00;;;;;;;33.10;35.67;94808.78;5092672;28;20206;-83
2022/07/02 11:23:50;;;;;;;7.38;6.72;;;;;;;32.79;36.58;94805.38;5092531;28;20630;-83
2022/07/02 11:26:19;;;;;;;7.93;7.25;;;;;;;32.46;37.21;94802.38;5092771;28;20395;-78
2022/07/02 11:28:45;;;;;;;7.88;7.07;;;;;;;32.84;36.67;94807.56;5078661;28;20555;-79
2022/07/02 11:31:13;;;;;;;7.80;7.10;;;;;;;33.04;36.14;94805.06;5092412;28;20218;-86
2022/07/02 11:33:45;;;;;;;8.55;7.25;;;;;;;33.31;36.08;94795.06;5092873;28;20624;-84
2022/07/02 11:36:13;;;;;;;7.85;7.05;;;;;;;33.70;35.79;94788.38;5092704;28;20247;-87
2022/07/02 11:38:41;;;;;;;9.10;7.15;;;;;;;33.31;38.34;94795.06;5092350;28;20272;-88
2022/07/02 11:41:22;;;;;;;8.93;7.18;;;;;;;31.95;45.30;94802.06;5092719;28;20202;-86
2022/07/02 11:43:50;;;;;;;8.32;7.47;;;;;;;30.10;48.72;94814.34;5092883;28;20750;-83